Time;durP1;ratioP1;P1;durP2;ratioP2;P2;SDS_P1;SDS_P2;PMS_P1;PMS_P2;Temp;Humidity;BMP_temperature;BMP_pressure;BME280_temperature;BME280_humidity;BME280_pressure;Samples;Min_cycle;Max_cycle;Signal;HPM_P1;HPM_P2
2022/12/10 00:01:35;;;;;;;;;;;;;;;1.44;100.00;100859.50;5096903;28;20215;-74
2022/12/10 00:04:01;;;;;;;;;;;;;;;1.43;100.00;100858.63;5087959;28;19921;-74
2022/12/10 00:06:28;;;;;;;;;;;;;;;1.44;100.00;100854.34;5093300;28;19935;-74
2022/12/10 00:08:53;;;;;;;;;;;;;;;1.43;100.00;100861.19;5095301;28;19908;-74
2022/12/10 00:11:20;;;;;;;;;;;;;;;1.42;100.00;100859.50;5096901;28;19931;-74
2022/12/10 00:13:45;;;;;;;;;;;;;;;1.42;100.00;100864.66;5094207;28;20233;-74
2022/12/10 00:16:12;;;;;;;;;;;;;;;1.41;100.00;100868.09;5096226;28;19924;-74
2022/12/10 00:18:37;;;;;;;;;;;;;;;1.41;100.00;100865.50;5099264;28;20299;-74
2022/12/10 00:21:06;;;;;;;;;;;;;;;1.42;100.00;100866.34;5101959;28;19924;-74
2022/12/10 00:23:32;;;;;;;;;;;;;;;1.41;100.00;100862.94;5094482;28;20226;-74
2022/12/10 00:26:02;;;;;;;;;;;;;;;1.40;100.00;100861.22;5099156;28;19920;-74
2022/12/10 00:28:27;;;;;;;;;;;;;;;1.41;100.00;100870.66;5099632;28;19924;-74
2022/12/10 00:30:52;;;;;;;;;;;;;;;1.41;100.00;100865.50;5099949;28;19927;-74
2022/12/10 00:33:17;;;;;;;;;;;;;;;1.40;100.00;100866.38;5100883;28;19935;-74
2022/12/10 00:35:42;;;;;;;;;;;;;;;1.39;100.00;100864.66;5099905;28;19942;-74
2022/12/10 00:38:08;;;;;;;;;;;;;;;1.40;100.00;100865.50;5098532;28;20162;-74
2022/12/10 00:40:33;;;;;;;;;;;;;;;1.39;100.00;100861.22;5098695;28;19924;-74
2022/12/10 00:42:58;;;;;;;;;;;;;;;1.39;100.00;100868.97;5100501;28;19920;-74
2022/12/10 00:45:23;;;;;;;;;;;;;;;1.38;100.00;100877.56;5095352;28;19928;-74
2022/12/10 00:47:48;;;;;;;;;;;;;;;1.38;100.00;100867.25;5094799;28;20030;-74
2022/12/10 00:50:14;;;;;;;;;;;;;;;1.37;100.00;100868.13;5092265;28;20120;-74
2022/12/10 00:52:39;;;;;;;;;;;;;;;1.37;100.00;100868.97;5093221;28;20577;-74
2022/12/10 00:55:04;;;;;;;;;;;;;;;1.37;100.00;100868.13;5095729;28;19935;-74
2022/12/10 00:57:29;;;;;;;;;;;;;;;1.36;100.00;100866.38;5099213;28;20088;-74
2022/12/10 00:59:55;;;;;;;;;;;;;;;1.34;100.00;100869.81;5099278;28;20022;-74
2022/12/10 01:02:20;;;;;;;;;;;;;;;1.34;100.00;100869.81;5099932;28;19965;-74
2022/12/10 01:04:46;;;;;;;;;;;;;;;1.34;100.00;100864.66;5093553;28;19924;-74
2022/12/10 01:07:11;;;;;;;;;;;;;;;1.33;100.00;100870.69;5097317;28;20216;-74
2022/12/10 01:09:36;;;;;;;;;;;;;;;1.33;100.00;100875.84;5099211;28;19912;-74
2022/12/10 01:12:03;;;;;;;;;;;;;;;1.32;100.00;100881.88;5098741;28;19991;-74
2022/12/10 01:14:30;;;;;;;;;;;;;;;1.32;100.00;100881.88;5099407;28;19984;-74
2022/12/10 01:16:57;;;;;;;;;;;;;;;1.31;100.00;100887.91;5099898;28;19944;-74
2022/12/10 01:19:22;;;;;;;;;;;;;;;1.30;100.00;100899.06;5100392;28;19916;-74
2022/12/10 01:21:51;;;;;;;;;;;;;;;1.29;100.00;100899.97;5092343;28;20144;-74
2022/12/10 01:24:16;;;;;;;;;;;;;;;1.29;100.00;100886.16;5100266;28;20127;-74
2022/12/10 01:26:42;;;;;;;;;;;;;;;1.30;100.00;100896.50;5091239;28;19958;-74
2022/12/10 01:29:07;;;;;;;;;;;;;;;1.29;100.00;100894.78;5080111;28;19913;-74
2022/12/10 01:31:33;;;;;;;;;;;;;;;1.30;100.00;100895.66;5085069;28;19931;-74
2022/12/10 01:33:59;;;;;;;;;;;;;;;1.30;100.00;100893.06;5100131;28;19930;-74
2022/12/10 01:36:33;;;;;;;;;;;;;;;1.29;100.00;100902.53;5096655;28;19999;-74
2022/12/10 01:38:59;;;;;;;;;;;;;;;1.29;100.00;100899.97;5079956;28;19920;-74
2022/12/10 01:41:26;;;;;;;;;;;;;;;1.30;100.00;100896.50;5088055;28;19915;-74
2022/12/10 01:44:02;;;;;;;;;;;;;;;1.31;100.00;100908.56;5099484;28;19923;-74
2022/12/10 01:46:29;;;;;;;;;;;;;;;1.33;100.00;100913.72;5098844;28;19982;-74
2022/12/10 01:48:54;;;;;;;;;;;;;;;1.31;100.00;100911.13;5079712;28;19979;-74
2022/12/10 01:51:20;;;;;;;;;;;;;;;1.32;100.00;100906.81;5079366;28;20507;-74
2022/12/10 01:53:46;;;;;;;;;;;;;;;1.30;100.00;100914.56;5098333;28;19912;-74
2022/12/10 01:56:12;;;;;;;;;;;;;;;1.32;100.00;100924.88;5099798;28;20259;-74
2022/12/10 01:58:38;;;;;;;;;;;;;;;1.32;100.00;100919.72;5082669;28;19958;-74
2022/12/10 02:01:11;;;;;;;;;;;;;;;1.33;100.00;100911.97;5079422;28;19966;-74
2022/12/10 02:03:44;;;;;;;;;;;;;;;1.32;100.00;100912.84;5094147;28;19920;-74
2022/12/10 02:06:22;;;;;;;;;;;;;;;1.33;100.00;100918.88;5099379;28;19927;-74
2022/12/10 02:08:56;;;;;;;;;;;;;;;1.34;100.00;100923.16;5083977;28;19943;-74
2022/12/10 02:11:57;;;;;;;;;;;;;;;1.34;100.00;100921.41;5079087;28;20224;-74
2022/12/10 02:14:36;;;;;;;;;;;;;;;1.34;100.00;100926.59;5015864;28;19960;-74
2022/12/10 02:17:04;;;;;;;;;;;;;;;1.34;100.00;100928.31;5071861;28;19909;-74
2022/12/10 02:19:38;;;;;;;;;;;;;;;1.34;100.00;100920.56;5079141;28;20195;-74
2022/12/10 02:22:05;;;;;;;;;;;;;;;1.33;100.00;100917.16;5079009;28;19959;-74
2022/12/10 02:24:32;;;;;;;;;;;;;;;1.34;100.00;100915.41;5095961;28;19912;-74
2022/12/10 02:26:58;;;;;;;;;;;;;;;1.34;100.00;100918.84;5098811;28;20153;-74
2022/12/10 02:29:27;;;;;;;;;;;;;;;1.34;100.00;100921.41;5084762;28;19920;-74
2022/12/10 02:32:00;;;;;;;;;;;;;;;1.34;100.00;100918.00;5079948;28;19920;-74
2022/12/10 02:34:27;;;;;;;;;;;;;;;1.36;100.00;100915.41;5092816;28;19912;-74
2022/12/10 02:36:54;;;;;;;;;;;;;;;1.34;100.00;100911.09;5097703;28;19912;-74
2022/12/10 02:39:23;;;;;;;;;;;;;;;1.34;100.00;100912.84;5086543;28;19948;-74
2022/12/10 02:41:51;;;;;;;;;;;;;;;1.36;100.00;100918.00;5078276;28;19917;-74
2022/12/10 02:44:18;;;;;;;;;;;;;;;1.36;100.00;100918.00;5079517;28;20317;-74
2022/12/10 02:46:45;;;;;;;;;;;;;;;1.35;100.00;100909.41;5078097;28;20005;-74
2022/12/10 02:49:13;;;;;;;;;;;;;;;1.36;100.00;100915.41;5085782;28;19920;-74
2022/12/10 02:51:39;;;;;;;;;;;;;;;1.36;100.00;100912.84;5096530;28;20206;-74
2022/12/10 02:54:05;;;;;;;;;;;;;;;1.37;100.00;100909.41;5093028;28;19940;-74
2022/12/10 02:56:47;;;;;;;;;;;;;;;1.36;100.00;100908.53;5077623;28;20131;-74
2022/12/10 02:59:19;;;;;;;;;;;;;;;1.36;100.00;100913.69;5083211;28;20134;-74
2022/12/10 03:01:44;;;;;;;;;;;;;;;1.36;100.00;100908.53;5098195;28;19923;-74
2022/12/10 03:04:16;;;;;;;;;;;;;;;1.36;100.00;100905.94;5095092;28;19920;-74
2022/12/10 03:06:44;;;;;;;;;;;;;;;1.37;100.00;100915.41;5077653;28;19991;-74
2022/12/10 03:09:16;;;;;;;;;;;;;;;1.37;100.00;100905.09;5079768;28;19988;-74
2022/12/10 03:11:43;;;;;;;;;;;;;;;1.36;100.00;100911.09;5098038;28;19916;-74
2022/12/10 03:14:21;;;;;;;;;;;;;;;1.37;100.00;100909.41;5097553;28;19919;-74
2022/12/10 03:16:55;;;;;;;;;;;;;;;1.37;100.00;100904.25;5077563;28;20270;-74
2022/12/10 03:19:23;;;;;;;;;;;;;;;1.36;100.00;100895.63;5078881;28;20211;-74
2022/12/10 03:21:50;;;;;;;;;;;;;;;1.38;100.00;100893.03;5097619;28;19924;-74
2022/12/10 03:24:16;;;;;;;;;;;;;;;1.39;100.00;100894.78;5097782;28;19998;-76
2022/12/10 03:26:43;;;;;;;;;;;;;;;1.38;100.00;100891.31;5078136;28;20018;-76
2022/12/10 03:29:10;;;;;;;;;;;;;;;1.39;100.00;100895.63;5077997;28;19936;-76
2022/12/10 03:31:37;;;;;;;;;;;;;;;1.38;100.00;100891.31;5075850;28;19920;-76
2022/12/10 03:34:04;;;;;;;;;;;;;;;1.39;100.00;100898.22;5097851;28;20404;-76
2022/12/10 03:36:30;;;;;;;;;;;;;;;1.39;100.00;100898.22;5084145;28;19979;-76
2022/12/10 03:38:56;;;;;;;;;;;;;;;1.39;100.00;100895.63;5098052;28;19916;-76
2022/12/10 03:41:21;;;;;;;;;;;;;;;1.40;100.00;100896.47;5095391;28;19912;-76
2022/12/10 03:43:54;;;;;;;;;;;;;;;1.40;100.00;100896.47;5097176;28;20227;-76
2022/12/10 03:46:19;;;;;;;;;;;;;;;1.39;100.00;100911.09;5073999;28;19924;-76
2022/12/10 03:48:44;;;;;;;;;;;;;;;1.40;100.00;100904.22;5094739;28;19916;-76
2022/12/10 03:51:10;;;;;;;;;;;;;;;1.40;100.00;100911.97;5083866;28;20003;-76
2022/12/10 03:53:35;;;;;;;;;;;;;;;1.40;100.00;100912.84;5076829;28;20007;-76
2022/12/10 03:56:00;;;;;;;;;;;;;;;1.41;100.00;100918.84;5088368;28;19970;-76
2022/12/10 03:58:25;;;;;;;;;;;;;;;1.40;100.00;100912.84;5097324;28;19943;-76
2022/12/10 04:00:51;;;;;;;;;;;;;;;1.41;100.00;100913.69;5088290;28;20219;-76
2022/12/10 04:03:16;;;;;;;;;;;;;;;1.41;100.00;100913.69;5077273;28;19966;-76
2022/12/10 04:05:41;;;;;;;;;;;;;;;1.41;100.00;100919.72;5077937;28;19928;-76
2022/12/10 04:08:07;;;;;;;;;;;;;;;1.41;100.00;100917.13;5077327;28;19917;-76
2022/12/10 04:10:35;;;;;;;;;;;;;;;1.41;100.00;100917.13;5080013;28;20255;-76
2022/12/10 04:18:27;;;;;;;;;;;;;;;1.42;100.00;100903.38;5077131;28;19923;-76
2022/12/10 04:29:06;;;;;;;;;;;;;;;1.43;100.00;100910.22;5077057;28;19927;-76
2022/12/10 04:31:31;;;;;;;;;;;;;;;1.43;100.00;100915.41;5082920;28;19927;-76
2022/12/10 04:33:56;;;;;;;;;;;;;;;1.45;100.00;100915.41;5097292;28;19920;-76
2022/12/10 04:36:22;;;;;;;;;;;;;;;1.45;100.00;100913.66;5093281;28;19956;-76
2022/12/10 04:38:47;;;;;;;;;;;;;;;1.45;100.00;100920.56;5076878;28;20208;-76
2022/12/10 04:41:15;;;;;;;;;;;;;;;1.46;100.00;100919.72;5078033;28;20157;-76
2022/12/10 04:43:40;;;;;;;;;;;;;;;1.46;100.00;100914.56;5096758;28;20197;-76
2022/12/10 04:46:06;;;;;;;;;;;;;;;1.46;100.00;100922.28;5079198;28;20147;-76
2022/12/10 04:48:31;;;;;;;;;;;;;;;1.46;100.00;100923.16;5095532;28;20115;-76
2022/12/10 04:50:56;;;;;;;;;;;;;;;1.45;100.00;100916.25;5097345;28;20092;-76
2022/12/10 04:53:22;;;;;;;;;;;;;;;1.45;100.00;100913.66;5062362;28;20117;-76
2022/12/10 04:55:47;;;;;;;;;;;;;;;1.46;100.00;100922.28;5076501;28;19952;-76
2022/12/10 04:58:12;;;;;;;;;;;;;;;1.47;100.00;100913.66;5090194;28;20143;-76
2022/12/10 05:00:38;;;;;;;;;;;;;;;1.46;100.00;100917.97;5090868;28;19920;-76
2022/12/10 05:03:03;;;;;;;;;;;;;;;1.48;100.00;100917.97;5091369;28;19985;-76
2022/12/10 05:05:28;;;;;;;;;;;;;;;1.48;100.00;100912.81;5100446;28;19924;-76
2022/12/10 05:07:53;;;;;;;;;;;;;;;1.47;100.00;100911.94;5092115;28;19955;-76
2022/12/10 05:10:19;;;;;;;;;;;;;;;1.48;100.00;100907.66;5062127;28;20097;-76
2022/12/10 05:12:44;;;;;;;;;;;;;;;1.48;100.00;100915.41;5085643;28;19943;-76
2022/12/10 05:15:09;;;;;;;;;;;;;;;1.47;100.00;100914.53;5100195;28;19920;-76
2022/12/10 05:17:35;;;;;;;;;;;;;;;1.47;100.00;100917.09;5096587;28;19938;-76
2022/12/10 05:20:00;;;;;;;;;;;;;;;1.48;100.00;100910.25;5079986;28;20037;-76
2022/12/10 05:25:09;;;;;;;;;;;;;;;1.48;100.00;100916.25;5100184;28;20103;-76
2022/12/10 05:27:35;;;;;;;;;;;;;;;1.48;100.00;100916.25;5098885;28;19920;-76
2022/12/10 05:30:00;;;;;;;;;;;;;;;1.49;100.00;100914.53;5079965;28;19921;-76
2022/12/10 05:32:25;;;;;;;;;;;;;;;1.49;100.00;100904.19;5079685;28;19921;-76
2022/12/10 05:34:50;;;;;;;;;;;;;;;1.49;100.00;100906.78;5097642;28;19950;-76
2022/12/10 05:37:15;;;;;;;;;;;;;;;1.49;100.00;100906.78;5099941;28;19927;-76
2022/12/10 05:39:41;;;;;;;;;;;;;;;1.49;100.00;100909.34;5083734;28;19975;-76
2022/12/10 05:42:06;;;;;;;;;;;;;;;1.48;100.00;100913.66;5079909;28;20136;-76
2022/12/10 05:44:31;;;;;;;;;;;;;;;1.51;100.00;100912.78;5092013;28;20212;-75
2022/12/10 05:46:56;;;;;;;;;;;;;;;1.50;100.00;100911.94;5100251;28;20200;-76
2022/12/10 05:49:22;;;;;;;;;;;;;;;1.49;100.00;100907.66;5088960;28;19920;-76
2022/12/10 05:51:47;;;;;;;;;;;;;;;1.51;100.00;100908.50;5079373;28;19920;-76
2022/12/10 05:54:12;;;;;;;;;;;;;;;1.52;100.00;100907.63;5086550;28;19944;-76
2022/12/10 05:56:38;;;;;;;;;;;;;;;1.52;100.00;100911.94;5099082;28;19931;-76
2022/12/10 05:59:03;;;;;;;;;;;;;;;1.51;100.00;100912.78;5077092;28;19932;-76
2022/12/10 06:01:31;;;;;;;;;;;;;;;1.52;100.00;100914.53;5079311;28;19916;-76
2022/12/10 06:03:57;;;;;;;;;;;;;;;1.52;100.00;100911.94;5081449;28;19920;-76
2022/12/10 06:06:23;;;;;;;;;;;;;;;1.52;100.00;100917.09;5099358;28;19919;-76
2022/12/10 06:08:48;;;;;;;;;;;;;;;1.53;100.00;100918.84;5097197;28;20155;-76
2022/12/10 06:11:13;;;;;;;;;;;;;;;1.53;100.00;100911.09;5079116;28;19928;-76
2022/12/10 06:13:39;;;;;;;;;;;;;;;1.52;100.00;100914.53;5077947;28;19954;-76
2022/12/10 06:16:08;;;;;;;;;;;;;;;1.52;100.00;100919.69;5096623;28;20111;-76
2022/12/10 06:18:34;;;;;;;;;;;;;;;1.54;100.00;100920.53;5098720;28;19908;-76
2022/12/10 06:21:02;;;;;;;;;;;;;;;1.52;100.00;100933.44;5083466;28;19939;-76
2022/12/10 06:23:27;;;;;;;;;;;;;;;1.52;100.00;100925.69;5078945;28;19948;-76
2022/12/10 06:25:52;;;;;;;;;;;;;;;1.53;100.00;100936.91;5091648;28;20147;-76
2022/12/10 06:28:18;;;;;;;;;;;;;;;1.52;100.00;100927.44;5098978;28;19947;-76
2022/12/10 06:30:43;;;;;;;;;;;;;;;1.51;100.00;100942.06;5087652;28;19916;-76
2022/12/10 06:33:08;;;;;;;;;;;;;;;1.52;100.00;100946.34;5078807;28;19958;-76
2022/12/10 06:35:33;;;;;;;;;;;;;;;1.50;100.00;100940.34;5085931;28;19916;-76
2022/12/10 06:37:59;;;;;;;;;;;;;;;1.52;100.00;100940.34;5098236;28;19969;-76
2022/12/10 06:40:24;;;;;;;;;;;;;;;1.52;100.00;100948.09;5087921;28;19961;-76
2022/12/10 06:42:52;;;;;;;;;;;;;;;1.53;100.00;100944.66;5078189;28;20089;-76
2022/12/10 06:45:17;;;;;;;;;;;;;;;1.53;100.00;100947.22;5079430;28;20325;-76
2022/12/10 06:47:42;;;;;;;;;;;;;;;1.53;100.00;100947.22;5089820;28;19924;-76
2022/12/10 06:50:08;;;;;;;;;;;;;;;1.52;100.00;100951.50;5098235;28;20136;-76
2022/12/10 06:52:33;;;;;;;;;;;;;;;1.52;100.00;100948.09;5097971;28;19959;-76
2022/12/10 06:54:59;;;;;;;;;;;;;;;1.52;100.00;100948.94;5098656;28;20012;-76
2022/12/10 06:57:24;;;;;;;;;;;;;;;1.53;100.00;100954.97;5098610;28;19920;-76
2022/12/10 06:59:49;;;;;;;;;;;;;;;1.53;100.00;100954.97;5098235;28;19922;-76
2022/12/10 07:02:14;;;;;;;;;;;;;;;1.53;100.00;100957.56;5098872;28;19996;-76
2022/12/10 07:04:40;;;;;;;;;;;;;;;1.53;100.00;100965.31;5097765;28;20291;-76
2022/12/10 07:07:06;;;;;;;;;;;;;;;1.53;100.00;100961.00;5117681;28;19994;-76
2022/12/10 07:09:31;;;;;;;;;;;;;;;1.54;100.00;100956.69;5118131;28;19908;-76
2022/12/10 07:11:57;;;;;;;;;;;;;;;1.53;100.00;100961.00;5102523;28;20234;-76
2022/12/10 07:14:22;;;;;;;;;;;;;;;1.53;100.00;100967.88;5095843;28;19962;-76
2022/12/10 07:16:47;;;;;;;;;;;;;;;1.53;100.00;100962.72;5084125;28;19916;-76
2022/12/10 07:19:12;;;;;;;;;;;;;;;1.54;100.00;100974.75;5097483;28;19987;-76
2022/12/10 07:21:39;;;;;;;;;;;;;;;1.53;100.00;100971.31;5095268;28;19920;-76
2022/12/10 07:24:15;;;;;;;;;;;;;;;1.55;100.00;100976.47;5097486;28;19943;-76
2022/12/10 07:26:41;;;;;;;;;;;;;;;1.55;100.00;100971.31;5086818;28;19947;-76
2022/12/10 07:29:09;;;;;;;;;;;;;;;1.55;100.00;100971.31;5097354;28;19923;-76
2022/12/10 07:31:35;;;;;;;;;;;;;;;1.56;100.00;100969.59;5082795;28;19920;-76
2022/12/10 07:34:01;;;;;;;;;;;;;;;1.56;100.00;100975.59;5096444;28;20240;-76
2022/12/10 07:36:26;;;;;;;;;;;;;;;1.57;100.00;100973.91;5096894;28;20134;-75
2022/12/10 07:38:52;;;;;;;;;;;;;;;1.57;100.00;100971.31;5089822;28;19935;-76
2022/12/10 07:41:18;;;;;;;;;;;;;;;1.56;100.00;100974.75;5085507;28;19924;-76
2022/12/10 07:43:44;;;;;;;;;;;;;;;1.56;100.00;100972.16;5092891;28;19944;-76
2022/12/10 07:46:09;;;;;;;;;;;;;;;1.57;100.00;100972.16;5095665;28;20108;-76
2022/12/10 07:48:35;;;;;;;;;;;;;;;1.57;100.00;100977.34;5092374;28;19966;-76
2022/12/10 07:51:01;;;;;;;;;;;;;;;1.57;100.00;100982.50;5089050;28;19920;-76
2022/12/10 07:53:26;;;;;;;;;;;;;;;1.58;100.00;100975.59;5093849;28;20077;-76
2022/12/10 07:55:51;;;;;;;;;;;;;;;1.58;100.00;100975.59;5093366;28;19923;-76
2022/12/10 07:58:16;;;;;;;;;;;;;;;1.58;100.00;100975.59;5092503;28;19924;-76
2022/12/10 08:00:42;;;;;;;;;;;;;;;1.58;100.00;100975.59;5096360;28;19999;-76
2022/12/10 08:03:07;;;;;;;;;;;;;;;1.58;100.00;100994.53;5096288;28;20120;-76
2022/12/10 08:05:32;;;;;;;;;;;;;;;1.59;100.00;100992.81;5094664;28;19974;-76
2022/12/10 08:07:57;;;;;;;;;;;;;;;1.59;100.00;100996.25;5093990;28;19973;-76
2022/12/10 08:10:23;;;;;;;;;;;;;;;1.59;100.00;100998.84;5095434;28;19923;-76
2022/12/10 08:12:48;;;;;;;;;;;;;;;1.58;100.00;101010.00;5094041;28;19924;-76
2022/12/10 08:15:13;;;;;;;;;;;;;;;1.59;100.00;101018.66;5096072;28;20001;-76
2022/12/10 08:17:38;;;;;;;;;;;;;;;1.58;100.00;101010.00;5094474;28;19952;-76
2022/12/10 08:20:04;;;;;;;;;;;;;;;1.60;100.00;101018.66;5096611;28;19935;-76
2022/12/10 08:22:29;;;;;;;;;;;;;;;1.59;100.00;101018.66;5095644;28;19912;-75
2022/12/10 08:24:54;;;;;;;;;;;;;;;1.60;100.00;101026.38;5096412;28;19923;-76
2022/12/10 08:27:19;;;;;;;;;;;;;;;1.59;100.00;101022.06;5095171;28;20026;-76
2022/12/10 08:29:45;;;;;;;;;;;;;;;1.61;100.00;101024.66;5095454;28;20123;-76
2022/12/10 08:32:10;;;;;;;;;;;;;;;1.59;100.00;101022.06;5097045;28;19924;-76
2022/12/10 08:34:35;;;;;;;;;;;;;;;1.61;100.00;101022.06;5094734;28;20119;-76
2022/12/10 08:37:00;;;;;;;;;;;;;;;1.59;100.00;101024.66;5098057;28;19954;-76
2022/12/10 08:39:26;;;;;;;;;;;;;;;1.61;100.00;101032.41;5100057;28;20123;-76
2022/12/10 08:41:51;;;;;;;;;;;;;;;1.59;100.00;101022.06;5100311;28;19927;-76
2022/12/10 08:44:16;;;;;;;;;;;;;;;1.60;100.00;101028.97;5095432;28;19985;-76
2022/12/10 08:46:42;;;;;;;;;;;;;;;1.62;100.00;101031.53;5098646;28;19935;-76
2022/12/10 08:49:07;;;;;;;;;;;;;;;1.61;100.00;101033.25;5098506;28;19963;-76
2022/12/10 08:51:32;;;;;;;;;;;;;;;1.61;100.00;101035.84;5096948;28;19955;-76
2022/12/10 08:53:57;;;;;;;;;;;;;;;1.62;100.00;101035.00;5085970;28;20151;-76
2022/12/10 08:56:23;;;;;;;;;;;;;;;1.62;100.00;101040.16;5095754;28;19956;-76
2022/12/10 08:58:48;;;;;;;;;;;;;;;1.62;100.00;101045.31;5087352;28;20141;-76
2022/12/10 09:01:15;;;;;;;;;;;;;;;1.62;100.00;101047.00;5095587;28;19912;-76
2022/12/10 09:03:40;;;;;;;;;;;;;;;1.62;100.00;101041.84;5096971;28;20211;-76
2022/12/10 09:06:07;;;;;;;;;;;;;;;1.63;100.00;101043.59;5098425;28;19995;-76
2022/12/10 09:08:33;;;;;;;;;;;;;;;1.63;100.00;101047.03;5097411;28;19969;-76
2022/12/10 09:11:03;;;;;;;;;;;;;;;1.62;100.00;101042.72;5086357;28;20247;-76
2022/12/10 09:13:28;;;;;;;;;;;;;;;1.63;100.00;101051.34;5098024;28;19912;-76
2022/12/10 09:15:53;;;;;;;;;;;;;;;1.63;100.00;101039.28;5090775;28;19924;-76
2022/12/10 09:18:19;;;;;;;;;;;;;;;1.63;100.00;101046.16;5096226;28;19912;-76
2022/12/10 09:20:44;;;;;;;;;;;;;;;1.62;100.00;101050.47;5085866;28;20124;-76
2022/12/10 09:23:09;;;;;;;;;;;;;;;1.62;100.00;101047.91;5095643;28;19915;-76
2022/12/10 09:25:35;;;;;;;;;;;;;;;1.62;100.00;101049.59;5096405;28;19979;-76
2022/12/10 09:28:00;;;;;;;;;;;;;;;1.62;100.00;101055.66;5080120;28;19975;-76
2022/12/10 09:30:25;;;;;;;;;;;;;;;1.61;100.00;101056.50;5091893;28;19920;-76
2022/12/10 09:32:51;;;;;;;;;;;;;;;1.63;100.00;101061.66;5089708;28;20026;-76
2022/12/10 09:35:16;;;;;;;;;;;;;;;1.61;100.00;101061.66;5087861;28;20027;-76
2022/12/10 09:37:41;;;;;;;;;;;;;;;1.62;100.00;101067.66;5090638;28;20092;-76
2022/12/10 09:40:07;;;;;;;;;;;;;;;1.62;100.00;101065.97;5079506;28;19991;-76
2022/12/10 09:42:41;;;;;;;;;;;;;;;1.62;100.00;101059.91;5094070;28;19923;-76
2022/12/10 09:45:25;;;;;;;;;;;;;;;1.61;100.00;101061.66;5089967;28;19912;-76
2022/12/10 09:48:04;;;;;;;;;;;;;;;1.61;100.00;101078.88;5086759;28;19925;-76
2022/12/10 09:50:45;;;;;;;;;;;;;;;1.61;100.00;101071.13;5095383;28;19920;-76
2022/12/10 09:53:13;;;;;;;;;;;;;;;1.60;100.00;101069.41;5097863;28;19908;-76
2022/12/10 09:55:42;;;;;;;;;;;;;;;1.61;100.00;101068.56;5089608;28;19965;-76
2022/12/10 09:58:13;;;;;;;;;;;;;;;1.61;100.00;101084.03;5096695;28;19920;-76
2022/12/10 10:00:39;;;;;;;;;;;;;;;1.60;100.00;101080.59;5091510;28;20209;-76
2022/12/10 10:03:06;;;;;;;;;;;;;;;1.61;100.00;101087.47;5088103;28;20251;-76
2022/12/10 10:05:34;;;;;;;;;;;;;;;1.61;100.00;101081.47;5092690;28;19986;-76
2022/12/10 10:08:01;;;;;;;;;;;;;;;1.62;100.00;101090.91;5096992;28;19943;-76
2022/12/10 10:10:38;;;;;;;;;;;;;;;1.61;100.00;101087.47;5094473;28;19943;-76
2022/12/10 10:13:22;;;;;;;;;;;;;;;1.62;100.00;101084.03;5097321;28;19920;-76
2022/12/10 10:15:47;;;;;;;;;;;;;;;1.63;100.00;101069.41;5095127;28;19923;-76
2022/12/10 10:18:12;;;;;;;;;;;;;;;1.62;100.00;101068.56;5094654;28;19943;-76
2022/12/10 10:20:38;;;;;;;;;;;;;;;1.64;100.00;101076.31;5076224;28;20261;-76
2022/12/10 10:23:03;;;;;;;;;;;;;;;1.64;100.00;101079.75;5097118;28;19924;-76
2022/12/10 10:25:28;;;;;;;;;;;;;;;1.63;100.00;101078.00;5091011;28;20116;-76
2022/12/10 10:27:54;;;;;;;;;;;;;;;1.64;100.00;101074.56;5089484;28;20124;-76
2022/12/10 10:30:20;;;;;;;;;;;;;;;1.65;100.00;101075.41;5088974;28;19920;-76
2022/12/10 10:32:49;;;;;;;;;;;;;;;1.64;100.00;101077.16;5096321;28;19939;-76
2022/12/10 10:35:40;;;;;;;;;;;;;;;1.64;100.00;101082.31;5094841;28;20211;-76
2022/12/10 10:38:07;;;;;;;;;;;;;;;1.64;100.00;101077.16;5092868;28;19919;-76
2022/12/10 10:40:43;;;;;;;;;;;;;;;1.65;100.00;101078.84;5087317;28;20196;-76
2022/12/10 10:43:35;;;;;;;;;;;;;;;1.65;100.00;101083.16;5085844;28;20131;-76
2022/12/10 10:46:11;;;;;;;;;;;;;;;1.65;100.00;101080.59;5075820;28;20182;-76
2022/12/10 10:48:36;;;;;;;;;;;;;;;1.66;100.00;101084.91;5077665;28;20089;-76
2022/12/10 10:51:07;;;;;;;;;;;;;;;1.65;100.00;101084.03;5092587;28;20154;-76
2022/12/10 10:53:40;;;;;;;;;;;;;;;1.65;100.00;101085.75;5095147;28;20113;-76
2022/12/10 10:56:16;;;;;;;;;;;;;;;1.66;100.00;101092.66;5095521;28;20241;-76
2022/12/10 10:59:00;;;;;;;;;;;;;;;1.65;100.00;101089.19;5096893;28;20069;-76
2022/12/10 11:01:42;;;;;;;;;;;;;;;1.65;100.00;101072.84;5090167;28;19957;-76
2022/12/10 11:04:07;;;;;;;;;;;;;;;1.65;100.00;101080.59;5098234;28;19923;-76
2022/12/10 11:06:32;;;;;;;;;;;;;;;1.65;100.00;101073.69;5089310;28;20128;-76
2022/12/10 11:08:58;;;;;;;;;;;;;;;1.66;100.00;101083.19;5078510;28;20271;-76
2022/12/10 11:11:36;;;;;;;;;;;;;;;1.67;100.00;101084.03;5094059;28;19930;-76
2022/12/10 11:14:15;;;;;;;;;;;;;;;1.65;100.00;101073.69;5087654;28;19958;-76
2022/12/10 11:16:40;;;;;;;;;;;;;;;1.68;100.00;101080.59;5093536;28;20204;-76
2022/12/10 11:19:16;;;;;;;;;;;;;;;1.68;100.00;101085.75;5092137;28;19908;-76
2022/12/10 11:21:41;;;;;;;;;;;;;;;1.67;100.00;101095.25;5096215;28;19916;-76
2022/12/10 11:24:11;;;;;;;;;;;;;;;1.68;100.00;101096.94;5088491;28;19923;-76
2022/12/10 11:27:08;;;;;;;;;;;;;;;1.67;100.00;101086.59;5076328;28;20266;-75
2022/12/10 11:29:39;;;;;;;;;;;;;;;1.69;100.00;101084.88;5049674;28;20238;-76
2022/12/10 11:32:23;;;;;;;;;;;;;;;1.68;100.00;101083.19;5080389;28;19922;-76
2022/12/10 11:35:05;;;;;;;;;;;;;;;1.69;100.00;101080.59;5081747;28;20234;-75
2022/12/10 11:37:36;;;;;;;;;;;;;;;1.69;100.00;101079.72;5087174;28;19986;-76
2022/12/10 11:40:20;;;;;;;;;;;;;;;1.70;100.00;101068.53;5088857;28;19912;-76
2022/12/10 11:42:51;;;;;;;;;;;;;;;1.70;100.00;101071.97;5086390;28;19955;-75
2022/12/10 11:45:23;;;;;;;;;;;;;;;1.71;100.00;101078.00;5091250;28;20110;-75
2022/12/10 11:48:07;;;;;;;;;;;;;;;1.70;100.00;101074.56;5080046;28;20472;-76
2022/12/10 11:51:00;;;;;;;;;;;;;;;1.70;100.00;101082.31;5084838;28;19927;-76
2022/12/10 11:53:41;;;;;;;;;;;;;;;1.71;100.00;101078.00;5093197;28;19916;-76
2022/12/10 11:56:09;;;;;;;;;;;;;;;1.71;100.00;101081.47;5076765;28;19975;-76
2022/12/10 11:58:37;;;;;;;;;;;;;;;1.71;100.00;101076.28;5076194;28;19920;-76
2022/12/10 12:01:21;;;;;;;;;;;;;;;1.71;100.00;101078.88;5076149;28;19986;-76
2022/12/10 12:03:52;;;;;;;;;;;;;;;1.72;100.00;101084.91;5075366;28;19921;-76
2022/12/10 12:06:32;;;;;;;;;;;;;;;1.72;100.00;101079.72;5086031;28;20165;-75
2022/12/10 12:09:00;;;;;;;;;;;;;;;1.71;100.00;101078.88;5095882;28;19944;-75
2022/12/10 12:11:32;;;;;;;;;;;;;;;1.73;100.00;101078.88;5094540;28;20100;-75
2022/12/10 12:14:01;;;;;;;;;;;;;;;1.73;100.00;101069.41;5095766;28;19938;-75
2022/12/10 12:16:40;;;;;;;;;;;;;;;1.73;100.00;101066.81;5093896;28;19952;-75
2022/12/10 12:19:11;;;;;;;;;;;;;;;1.75;100.00;101069.41;5094803;28;19915;-75
2022/12/10 12:21:37;;;;;;;;;;;;;;;1.76;100.00;101068.53;5094275;28;19935;-75
2022/12/10 12:24:07;;;;;;;;;;;;;;;1.76;100.00;101070.25;5088493;28;19926;-75
2022/12/10 12:26:37;;;;;;;;;;;;;;;1.76;100.00;101070.25;5089356;28;19921;-75
2022/12/10 12:29:14;;;;;;;;;;;;;;;1.76;100.00;101065.09;5082377;28;20219;-75
2022/12/10 12:31:42;;;;;;;;;;;;;;;1.76;100.00;101060.78;5093110;28;19916;-75
2022/12/10 12:34:10;;;;;;;;;;;;;;;1.76;100.00;101071.09;5093532;28;19923;-76
2022/12/10 12:36:36;;;;;;;;;;;;;;;1.76;100.00;101065.94;5095865;28;19923;-75
2022/12/10 12:39:10;;;;;;;;;;;;;;;1.78;100.00;101060.78;5096411;28;19908;-76
2022/12/10 12:41:36;;;;;;;;;;;;;;;1.77;100.00;101070.25;5092791;28;19916;-76
2022/12/10 12:44:10;;;;;;;;;;;;;;;1.79;100.00;101062.53;5092727;28;19916;-75
2022/12/10 12:46:37;;;;;;;;;;;;;;;1.78;100.00;101064.22;5094355;28;19965;-76
2022/12/10 12:49:11;;;;;;;;;;;;;;;1.79;100.00;101073.69;5096248;28;19954;-76
2022/12/10 12:51:41;;;;;;;;;;;;;;;1.79;100.00;101063.38;5095589;28;19939;-76
2022/12/10 12:54:09;;;;;;;;;;;;;;;1.80;100.00;101071.97;5087540;28;19986;-76
2022/12/10 12:56:35;;;;;;;;;;;;;;;1.79;100.00;101063.38;5077479;28;19920;-76